Time;durP1;ratioP1;P1;durP2;ratioP2;P2;SDS_P1;SDS_P2;PMS_P1;PMS_P2;Temp;Humidity;BMP_temperature;BMP_pressure;BME280_temperature;BME280_humidity;BME280_pressure;Samples;Min_cycle;Max_cycle;Signal;HPM_P1;HPM_P2
2021/12/31 00:01:44;;;;;;;5.88;1.88;;;;;;;12.86;97.92;101693.88;5071804;28;20032;-71
2021/12/31 00:04:10;;;;;;;4.82;2.15;;;;;;;12.87;97.61;101698.19;5091189;28;20028;-71
2021/12/31 00:06:36;;;;;;;7.82;2.88;;;;;;;12.88;97.23;101688.31;5091534;28;20056;-71
2021/12/31 00:09:05;;;;;;;3.55;1.90;;;;;;;12.84;97.84;101687.88;5091490;28;20032;-71
2021/12/31 00:11:30;;;;;;;6.05;2.90;;;;;;;12.86;97.78;101701.06;5091394;28;20024;-71
2021/12/31 00:13:56;;;;;;;5.07;2.42;;;;;;;12.86;97.08;101693.88;5091480;28;20020;-71
2021/12/31 00:16:21;;;;;;;7.03;2.63;;;;;;;12.87;97.13;101692.84;5091609;28;20537;-71
2021/12/31 00:18:46;;;;;;;7.03;2.83;;;;;;;12.88;96.77;101691.00;5091598;28;20024;-71
2021/12/31 00:21:12;;;;;;;6.70;2.42;;;;;;;12.88;96.74;101686.44;5091177;28;20024;-71
2021/12/31 00:23:37;;;;;;;6.15;2.55;;;;;;;12.87;96.74;101692.03;5091216;28;20032;-71
2021/12/31 00:26:03;;;;;;;4.90;2.85;;;;;;;12.84;96.69;101687.88;5089832;28;20070;-71
2021/12/31 00:28:28;;;;;;;9.48;3.15;;;;;;;12.88;96.43;101696.34;5090723;28;20056;-71
2021/12/31 00:30:55;;;;;;;5.85;2.40;;;;;;;12.92;96.07;101705.66;5090231;28;20028;-71
2021/12/31 00:33:23;;;;;;;3.50;2.42;;;;;;;12.89;96.29;101706.00;5091078;28;20063;-71
2021/12/31 00:35:48;;;;;;;8.75;3.17;;;;;;;12.89;96.20;101704.19;5091141;28;20054;-71
2021/12/31 00:38:14;;;;;;;4.95;2.33;;;;;;;12.88;95.63;101696.34;5080145;28;20115;-71
2021/12/31 00:40:41;;;;;;;4.10;1.70;;;;;;;12.90;95.23;101707.69;5071322;28;20037;-71
2021/12/31 00:43:06;;;;;;;4.20;2.45;;;;;;;12.92;95.18;101714.53;5069580;28;20036;-71
2021/12/31 00:45:36;;;;;;;5.75;2.10;;;;;;;12.93;95.36;101710.81;5090741;28;20475;-71
2021/12/31 00:48:03;;;;;;;6.03;1.92;;;;;;;12.93;95.25;101702.78;5090685;28;20032;-72
2021/12/31 00:50:28;;;;;;;4.90;2.80;;;;;;;12.89;95.10;101703.34;5090844;28;20042;-71
2021/12/31 00:52:53;;;;;;;5.25;2.13;;;;;;;12.93;95.05;101715.34;5090644;28;20028;-71
2021/12/31 00:55:19;;;;;;;6.57;2.38;;;;;;;12.92;95.31;101705.66;5090648;28;20020;-71
2021/12/31 00:57:44;;;;;;;5.05;2.10;;;;;;;12.91;95.03;101702.13;5090671;28;20036;-71
2021/12/31 01:00:13;;;;;;;10.20;2.92;;;;;;;12.90;94.79;101705.00;5073468;28;20031;-71
2021/12/31 01:02:39;;;;;;;3.17;2.08;;;;;;;12.88;94.89;101691.81;5070429;28;20032;-71
2021/12/31 01:05:05;;;;;;;9.57;2.50;;;;;;;12.91;94.78;101695.94;5070953;28;20371;-71
2021/12/31 01:07:31;;;;;;;4.95;2.15;;;;;;;12.89;94.59;101697.97;5090449;28;20040;-71
2021/12/31 01:09:57;;;;;;;10.55;3.67;;;;;;;12.91;94.31;101702.13;5090341;28;20024;-71
2021/12/31 01:12:25;;;;;;;3.05;2.00;;;;;;;12.89;94.75;101697.97;5090433;28;20049;-71
2021/12/31 01:14:56;;;;;;;4.82;2.10;;;;;;;12.92;94.11;101700.31;5090332;28;20044;-71
2021/12/31 01:17:40;;;;;;;5.72;2.63;;;;;;;12.94;94.05;101711.63;5090359;28;20027;-71
2021/12/31 01:20:06;;;;;;;4.57;1.95;;;;;;;12.92;94.23;101697.63;5088533;28;20028;-71
2021/12/31 01:22:33;;;;;;;5.55;2.03;;;;;;;12.89;93.84;101714.91;5088965;28;20028;-71
2021/12/31 01:24:59;;;;;;;2.45;1.95;;;;;;;12.87;94.30;101703.56;5089765;28;20052;-71
2021/12/31 01:27:24;;;;;;;5.32;2.10;;;;;;;12.89;94.16;101701.50;5090063;28;20032;-71
2021/12/31 01:29:50;;;;;;;4.28;2.25;;;;;;;12.91;94.49;101698.63;5090046;28;20448;-71
2021/12/31 01:32:16;;;;;;;7.18;2.55;;;;;;;12.88;94.02;101696.34;5089937;28;20074;-71
2021/12/31 01:34:41;;;;;;;4.68;1.98;;;;;;;12.87;94.07;101690.16;5089369;28;20028;-71
2021/12/31 01:37:08;;;;;;;6.82;2.50;;;;;;;12.86;94.07;101698.38;5085137;28;20040;-71
2021/12/31 01:39:34;;;;;;;7.88;2.15;;;;;;;12.85;94.05;101694.88;5089737;28;20043;-71
2021/12/31 01:42:02;;;;;;;5.40;2.33;;;;;;;12.85;93.93;101699.41;5083869;28;20029;-71
2021/12/31 01:44:36;;;;;;;4.75;1.85;;;;;;;12.85;94.04;101700.22;5088611;28;20111;-72
2021/12/31 01:47:09;;;;;;;6.95;3.22;;;;;;;12.83;94.04;101706.78;5089760;28;20037;-71
2021/12/31 01:49:38;;;;;;;3.75;2.03;;;;;;;12.82;94.43;101719.34;5089714;28;20034;-71
2021/12/31 01:52:05;;;;;;;3.22;1.83;;;;;;;12.81;94.18;101717.72;5088459;28;20368;-71
2021/12/31 01:54:32;;;;;;;4.53;1.90;;;;;;;12.84;93.43;101716.50;5089682;28;20491;-71
2021/12/31 01:57:04;;;;;;;3.60;2.28;;;;;;;12.80;93.58;101723.25;5089623;28;20024;-71
2021/12/31 01:59:31;;;;;;;2.22;1.67;;;;;;;12.80;93.86;101724.06;5089952;28;20028;-71
2021/12/31 02:01:57;;;;;;;6.25;2.40;;;;;;;12.83;93.28;101730.88;5089470;28;20024;-71
2021/12/31 02:04:23;;;;;;;3.13;1.58;;;;;;;12.82;93.73;101732.75;5088905;28;20032;-71
2021/12/31 02:06:48;;;;;;;4.90;2.50;;;;;;;12.81;92.89;101723.06;5089417;28;20472;-71
2021/12/31 02:09:14;;;;;;;5.47;2.15;;;;;;;12.82;93.23;101727.38;5089486;28;20028;-71
2021/12/31 02:11:40;;;;;;;4.13;2.05;;;;;;;12.84;93.49;101728.03;5089171;28;20440;-71
2021/12/31 02:14:06;;;;;;;12.13;3.85;;;;;;;12.85;93.19;101728.84;5089483;28;20032;-71
2021/12/31 02:16:32;;;;;;;4.25;1.73;;;;;;;12.85;93.24;101728.84;5069885;28;20526;-71
2021/12/31 02:19:15;;;;;;;13.57;3.05;;;;;;;12.82;93.59;101721.22;5089331;28;20035;-71
2021/12/31 02:21:44;;;;;;;7.47;1.70;;;;;;;12.84;93.03;101732.56;5089421;28;20016;-71
2021/12/31 02:24:10;;;;;;;4.88;2.30;;;;;;;12.83;92.92;101722.84;5082866;28;20049;-71
2021/12/31 02:26:36;;;;;;;5.03;1.67;;;;;;;12.81;92.78;101715.03;5089006;28;20039;-71
2021/12/31 02:29:02;;;;;;;7.43;2.70;;;;;;;12.84;92.96;101720.00;5087924;28;20032;-71
2021/12/31 02:31:27;;;;;;;4.57;2.40;;;;;;;12.83;93.02;101721.00;5069954;28;20048;-71
2021/12/31 02:33:53;;;;;;;3.75;2.17;;;;;;;12.81;92.73;101711.50;5069829;28;20044;-71
2021/12/31 02:36:19;;;;;;;2.00;1.70;;;;;;;12.83;92.88;101720.19;5069872;28;20025;-71
2021/12/31 02:38:45;;;;;;;5.90;1.70;;;;;;;12.82;92.68;101719.34;5072626;28;20028;-71
2021/12/31 02:41:10;;;;;;;9.07;3.15;;;;;;;12.82;92.82;101713.19;5069693;28;20028;-71
2021/12/31 02:43:37;;;;;;;2.97;1.83;;;;;;;12.78;92.57;101704.69;5070376;28;20113;-71
2021/12/31 02:46:02;;;;;;;7.22;2.45;;;;;;;12.83;92.51;101714.81;5090500;28;20411;-71
2021/12/31 02:48:28;;;;;;;4.95;2.08;;;;;;;12.83;92.50;101712.16;5092949;28;20028;-71
2021/12/31 02:50:56;;;;;;;5.53;2.65;;;;;;;12.80;92.44;101701.81;5092777;28;20032;-71
2021/12/31 02:53:41;;;;;;;7.20;2.33;;;;;;;12.82;92.62;101721.22;5093128;28;20028;-71
2021/12/31 02:56:11;;;;;;;6.20;1.90;;;;;;;12.80;92.35;101710.69;5092978;28;20086;-71
2021/12/31 02:58:39;;;;;;;2.95;2.25;;;;;;;12.80;92.46;101704.50;5092972;28;20023;-71
2021/12/31 03:01:07;;;;;;;5.95;1.90;;;;;;;12.78;92.49;101701.19;5091652;28;20031;-71
2021/12/31 03:03:34;;;;;;;4.10;1.70;;;;;;;12.75;92.53;101699.72;5091391;28;20024;-71
2021/12/31 03:06:00;;;;;;;4.95;2.15;;;;;;;12.72;92.14;101694.75;5092295;28;20032;-71
2021/12/31 03:08:29;;;;;;;5.90;1.90;;;;;;;12.74;92.46;101703.41;5092520;28;20055;-71
2021/12/31 03:10:56;;;;;;;7.78;2.40;;;;;;;12.74;92.46;101703.41;5092554;28;20024;-71
2021/12/31 03:13:23;;;;;;;10.02;2.28;;;;;;;12.71;92.41;101691.25;5091417;28;20062;-71
2021/12/31 03:15:51;;;;;;;9.32;2.78;;;;;;;12.75;92.41;101704.25;5082952;28;20412;-71
2021/12/31 03:18:18;;;;;;;4.85;3.33;;;;;;;12.74;92.69;101703.41;5092203;28;20150;-71
2021/12/31 03:20:57;;;;;;;2.90;1.98;;;;;;;12.72;92.54;101702.78;5092509;28;20117;-71
2021/12/31 03:23:27;;;;;;;5.35;2.33;;;;;;;12.70;92.63;101689.56;5092178;28;20035;-71
2021/12/31 03:25:52;;;;;;;6.22;2.30;;;;;;;12.67;92.87;101697.97;5092414;28;20031;-71
2021/12/31 03:28:19;;;;;;;6.63;2.42;;;;;;;12.67;92.76;101695.31;5092574;28;20114;-71
2021/12/31 03:30:45;;;;;;;3.55;2.00;;;;;;;12.67;92.42;101689.13;5092364;28;20394;-71
2021/12/31 03:33:11;;;;;;;2.58;1.80;;;;;;;12.58;92.36;101685.75;5092371;28;20075;-71
2021/12/31 03:35:36;;;;;;;3.35;2.25;;;;;;;12.60;92.80;101691.75;5092088;28;20162;-71
2021/12/31 03:38:03;;;;;;;11.00;2.17;;;;;;;12.59;92.91;101686.56;5092424;28;20028;-71
2021/12/31 03:40:28;;;;;;;8.68;2.30;;;;;;;12.55;92.89;101695.97;5072694;28;20170;-71
2021/12/31 03:42:53;;;;;;;6.78;2.67;;;;;;;12.53;93.29;101688.16;5091678;28;20123;-71
2021/12/31 03:45:19;;;;;;;5.45;2.53;;;;;;;12.51;93.33;101692.88;5091937;28;20127;-71
2021/12/31 03:47:44;;;;;;;5.53;1.92;;;;;;;12.51;93.14;101690.19;5091242;28;20115;-71
2021/12/31 03:50:09;;;;;;;6.10;2.72;;;;;;;12.49;93.09;101690.38;5091906;28;20046;-71
2021/12/31 03:52:39;;;;;;;4.38;2.00;;;;;;;12.49;93.13;101689.53;5091892;28;20024;-71
2021/12/31 03:55:09;;;;;;;4.57;2.15;;;;;;;12.48;93.11;101686.03;5091930;28;20368;-71
2021/12/31 03:57:36;;;;;;;5.22;2.78;;;;;;;12.47;93.23;101678.19;5091297;28;20028;-71
2021/12/31 04:00:04;;;;;;;6.40;2.10;;;;;;;12.47;93.30;101680.88;5091920;28;20042;-71
2021/12/31 04:02:29;;;;;;;6.65;2.38;;;;;;;12.45;93.27;101683.75;5091696;28;20422;-71
2021/12/31 04:04:55;;;;;;;11.40;3.35;;;;;;;12.44;92.93;101683.94;5091545;28;20143;-71
2021/12/31 04:07:21;;;;;;;4.30;1.95;;;;;;;12.45;93.04;101681.06;5091270;28;20060;-71
2021/12/31 04:09:46;;;;;;;7.75;2.92;;;;;;;12.45;93.14;101682.94;5090492;28;20067;-71
2021/12/31 04:12:12;;;;;;;5.97;2.50;;;;;;;12.44;93.24;101683.94;5091483;28;20063;-71
2021/12/31 04:14:37;;;;;;;5.40;2.63;;;;;;;12.43;93.01;101677.75;5091437;28;20067;-71
2021/12/31 04:17:03;;;;;;;5.78;2.63;;;;;;;12.43;93.06;101676.94;5091670;28;20063;-71
2021/12/31 04:19:28;;;;;;;4.57;2.17;;;;;;;12.41;93.28;101676.28;5071947;28;20479;-71
2021/12/31 04:21:54;;;;;;;6.18;2.13;;;;;;;12.41;93.44;101679.78;5072062;28;20031;-71
2021/12/31 04:27:04;;;;;;;5.30;2.60;;;;;;;12.41;93.38;101687.81;5091265;28;20042;-71
2021/12/31 04:29:29;;;;;;;8.48;2.78;;;;;;;12.39;93.34;101675.63;5091482;28;20130;-71
2021/12/31 04:31:54;;;;;;;7.97;3.08;;;;;;;12.42;93.10;101681.47;5091316;28;20032;-71
2021/12/31 04:34:20;;;;;;;3.95;2.40;;;;;;;12.42;93.40;101680.63;5091313;28;20107;-71
2021/12/31 04:36:46;;;;;;;7.82;2.30;;;;;;;12.43;93.19;101664.38;5091074;28;20625;-71
2021/12/31 04:39:12;;;;;;;6.47;2.67;;;;;;;12.44;92.93;101666.06;5091037;28;20038;-71
2021/12/31 04:41:37;;;;;;;5.72;2.47;;;;;;;12.46;93.51;101653.28;5073144;28;20036;-71
2021/12/31 04:44:03;;;;;;;6.18;2.30;;;;;;;12.45;93.16;101662.34;5090919;28;20032;-71
2021/12/31 04:46:28;;;;;;;4.03;2.45;;;;;;;12.46;93.08;101663.16;5090661;28;20028;-71
2021/12/31 04:48:53;;;;;;;6.28;2.60;;;;;;;12.45;92.79;101651.66;5090325;28;20036;-71
2021/12/31 04:51:19;;;;;;;4.38;2.40;;;;;;;12.47;92.57;101649.63;5090742;28;20031;-71
2021/12/31 04:53:44;;;;;;;9.30;2.38;;;;;;;12.50;92.41;101653.75;5090721;28;20024;-71
2021/12/31 04:56:09;;;;;;;7.05;2.72;;;;;;;12.50;92.50;101645.72;5087244;28;20043;-71
2021/12/31 04:58:35;;;;;;;4.60;2.42;;;;;;;12.53;92.54;101649.88;5071322;28;20111;-71
2021/12/31 05:01:00;;;;;;;9.48;3.30;;;;;;;12.49;92.52;101652.91;5071128;28;20024;-71
2021/12/31 05:03:25;;;;;;;5.43;2.30;;;;;;;12.46;92.64;101660.50;5074131;28;20032;-71
2021/12/31 05:05:51;;;;;;;4.25;2.28;;;;;;;12.51;92.55;101663.44;5071229;28;20085;-71
2021/12/31 05:08:16;;;;;;;7.30;2.30;;;;;;;12.52;92.50;101666.94;5089552;28;20509;-71
2021/12/31 05:10:41;;;;;;;5.50;3.00;;;;;;;12.52;92.40;101658.91;5089542;28;20039;-71
2021/12/31 05:13:09;;;;;;;8.32;3.47;;;;;;;12.52;92.64;101664.25;5090085;28;20503;-71
2021/12/31 05:15:38;;;;;;;9.50;2.60;;;;;;;12.49;92.53;101660.09;5090357;28;20024;-71
2021/12/31 05:18:03;;;;;;;7.38;2.70;;;;;;;12.48;92.45;101659.28;5090330;28;20101;-71
2021/12/31 05:20:28;;;;;;;5.22;2.53;;;;;;;12.48;92.25;101671.84;5090263;28;20491;-71
2021/12/31 05:22:54;;;;;;;4.75;2.63;;;;;;;12.49;92.31;101665.47;5090182;28;20036;-71
2021/12/31 05:25:22;;;;;;;10.05;3.85;;;;;;;12.51;91.41;101655.41;5089858;28;20044;-71
2021/12/31 05:27:47;;;;;;;4.97;2.58;;;;;;;12.52;91.49;101648.19;5090236;28;20119;-71
2021/12/31 05:30:13;;;;;;;4.53;2.20;;;;;;;12.52;91.99;101664.25;5089931;28;20030;-71
2021/12/31 05:32:38;;;;;;;3.63;2.03;;;;;;;12.48;91.65;101635.22;5089901;28;20035;-71
2021/12/31 05:35:04;;;;;;;4.47;2.40;;;;;;;12.49;91.50;101641.38;5090070;28;20020;-71
2021/12/31 05:37:29;;;;;;;9.02;3.17;;;;;;;12.49;91.26;101628.81;5089816;28;20035;-71
2021/12/31 05:39:55;;;;;;;6.68;2.35;;;;;;;12.46;91.33;101623.84;5089458;28;20036;-71
2021/12/31 05:42:20;;;;;;;4.97;2.10;;;;;;;12.52;90.93;101621.44;5088562;28;20035;-71
2021/12/31 05:44:48;;;;;;;6.60;2.45;;;;;;;12.48;91.04;101616.47;5089624;28;20032;-71
2021/12/31 05:47:13;;;;;;;7.53;3.17;;;;;;;12.45;91.00;101616.03;5089803;28;20024;-71
2021/12/31 05:49:38;;;;;;;4.75;2.60;;;;;;;12.44;90.45;101606.34;5089758;28;20383;-71
2021/12/31 05:52:04;;;;;;;4.00;2.08;;;;;;;12.45;90.21;101608.84;5068256;28;20395;-71
2021/12/31 05:54:30;;;;;;;4.07;2.38;;;;;;;12.38;90.51;101599.91;5069906;28;20574;-71
2021/12/31 05:56:55;;;;;;;5.40;2.58;;;;;;;12.28;91.03;101594.03;5070289;28;20445;-71
2021/12/31 05:59:20;;;;;;;4.70;2.20;;;;;;;12.23;90.96;101593.78;5070271;28;20386;-71
2021/12/31 06:01:46;;;;;;;5.45;2.08;;;;;;;12.17;90.94;101606.06;5070278;28;20032;-71
2021/12/31 06:04:11;;;;;;;6.10;2.10;;;;;;;12.10;91.00;101607.81;5070172;28;20036;-71
2021/12/31 06:06:37;;;;;;;3.38;2.20;;;;;;;12.06;91.49;101611.91;5069967;28;20033;-71
2021/12/31 06:09:06;;;;;;;4.53;2.10;;;;;;;12.02;91.38;101614.09;5070326;28;20111;-71
2021/12/31 06:11:32;;;;;;;5.40;2.20;;;;;;;11.98;91.42;101615.50;5068409;28;20021;-71
2021/12/31 06:14:01;;;;;;;3.90;2.15;;;;;;;11.93;91.49;101606.41;5088697;28;20061;-71
2021/12/31 06:16:28;;;;;;;7.25;2.70;;;;;;;11.91;91.76;101611.09;5089475;28;20095;-71
2021/12/31 06:18:54;;;;;;;4.75;2.38;;;;;;;11.88;91.84;101624.84;5089191;28;20088;-71
2021/12/31 06:21:20;;;;;;;5.05;3.00;;;;;;;11.86;91.75;101627.69;5089381;28;20028;-71
2021/12/31 06:23:46;;;;;;;6.70;2.33;;;;;;;11.82;91.75;101635.22;5087456;28;20151;-71
2021/12/31 06:26:11;;;;;;;11.57;2.55;;;;;;;11.79;91.94;101632.94;5089040;28;20134;-71
2021/12/31 06:28:36;;;;;;;4.10;2.65;;;;;;;11.74;91.94;101632.66;5089131;28;20036;-71
2021/12/31 06:31:03;;;;;;;5.57;3.35;;;;;;;11.71;92.26;101632.19;5071193;28;20051;-71
2021/12/31 06:33:28;;;;;;;3.80;1.88;;;;;;;11.72;92.27;101652.56;5089165;28;20032;-71
2021/12/31 06:35:53;;;;;;;4.55;2.53;;;;;;;11.68;92.54;101643.25;5088992;28;20072;-71
2021/12/31 06:38:19;;;;;;;7.82;2.78;;;;;;;11.55;92.45;101633.19;5089135;28;20052;-71
2021/12/31 06:40:44;;;;;;;6.68;3.22;;;;;;;11.49;92.43;101624.06;5089013;28;20081;-71
2021/12/31 06:43:09;;;;;;;3.38;2.13;;;;;;;11.52;92.95;101644.25;5089061;28;20016;-71
2021/12/31 06:45:35;;;;;;;4.15;2.42;;;;;;;11.49;92.92;101652.63;5089100;28;20955;-71
2021/12/31 06:48:00;;;;;;;6.50;2.97;;;;;;;11.46;93.26;101653.00;5089139;28;20115;-71
2021/12/31 06:50:26;;;;;;;4.60;2.47;;;;;;;11.39;93.22;101651.03;5088449;28;20032;-71
2021/12/31 06:52:51;;;;;;;3.03;2.33;;;;;;;11.40;93.41;101652.72;5088889;28;20059;-71
2021/12/31 06:55:16;;;;;;;4.97;2.22;;;;;;;11.37;93.36;101660.25;5088803;28;20032;-71
2021/12/31 06:57:42;;;;;;;9.52;2.80;;;;;;;11.32;93.56;101655.47;5087920;28;20024;-71
2021/12/31 07:00:09;;;;;;;7.05;2.92;;;;;;;11.28;93.58;101659.50;5088861;28;20119;-71
2021/12/31 07:02:34;;;;;;;3.30;2.10;;;;;;;11.24;93.92;101662.72;5088690;28;20538;-71
2021/12/31 07:04:59;;;;;;;2.97;2.22;;;;;;;11.18;94.10;101659.75;5088682;28;20036;-71
2021/12/31 07:07:25;;;;;;;6.40;2.50;;;;;;;11.17;94.06;101651.94;5088718;28;20086;-71
2021/12/31 07:09:50;;;;;;;3.05;2.38;;;;;;;11.17;94.08;101659.94;5088752;28;20055;-71
2021/12/31 07:12:16;;;;;;;2.90;2.40;;;;;;;11.13;94.31;101666.66;5088486;28;20016;-71
2021/12/31 07:14:41;;;;;;;4.85;2.67;;;;;;;11.13;94.32;101666.66;5088497;28;20032;-71
2021/12/31 07:17:07;;;;;;;5.30;2.70;;;;;;;11.10;94.34;101659.81;5081286;28;20365;-71
2021/12/31 07:19:32;;;;;;;5.13;2.63;;;;;;;11.11;94.46;101645.50;5050859;28;20134;-71
2021/12/31 07:21:58;;;;;;;5.25;2.92;;;;;;;11.11;94.12;101650.00;5068958;28;20095;-71
2021/12/31 07:24:23;;;;;;;8.32;2.35;;;;;;;11.10;94.46;101649.16;5068946;28;20080;-71
2021/12/31 07:26:48;;;;;;;5.15;3.35;;;;;;;11.12;94.72;101648.97;5069326;28;20029;-71
2021/12/31 07:29:14;;;;;;;4.65;2.47;;;;;;;11.13;94.26;101648.81;5069306;28;20491;-71
2021/12/31 07:31:39;;;;;;;7.88;2.10;;;;;;;11.11;94.54;101650.81;5070665;28;20120;-71
2021/12/31 07:34:05;;;;;;;5.55;2.63;;;;;;;11.10;94.63;101656.34;5072793;28;20507;-71
2021/12/31 07:36:30;;;;;;;5.53;2.65;;;;;;;11.08;94.60;101658.34;5072950;28;20032;-71
2021/12/31 07:39:03;;;;;;;9.05;3.83;;;;;;;11.03;94.58;101652.72;5072604;28;20032;-71
2021/12/31 07:41:28;;;;;;;8.43;3.58;;;;;;;10.98;94.54;101650.63;5091999;28;20042;-71
2021/12/31 07:43:53;;;;;;;4.43;2.70;;;;;;;11.02;94.70;101661.75;5092113;28;20036;-71
2021/12/31 07:46:19;;;;;;;7.10;2.42;;;;;;;11.00;94.59;101659.25;5092055;28;20122;-71
2021/12/31 07:48:44;;;;;;;3.92;2.38;;;;;;;10.97;94.70;101660.44;5091966;28;20020;-71
2021/12/31 07:51:10;;;;;;;8.02;2.40;;;;;;;10.97;94.79;101668.44;5091642;28;20047;-71
2021/12/31 07:53:36;;;;;;;5.70;2.50;;;;;;;10.97;94.88;101670.28;5091929;28;20363;-71
2021/12/31 07:56:02;;;;;;;9.38;3.40;;;;;;;10.94;94.57;101659.97;5091768;28;20077;-71
2021/12/31 07:58:27;;;;;;;5.63;3.20;;;;;;;10.96;94.42;101672.13;5091880;28;20016;-71
2021/12/31 08:00:53;;;;;;;4.82;2.42;;;;;;;10.96;94.41;101672.13;5091707;28;20040;-71
2021/12/31 08:03:18;;;;;;;5.22;2.72;;;;;;;10.95;94.53;101677.63;5091633;28;20032;-71
2021/12/31 08:05:44;;;;;;;4.32;2.75;;;;;;;10.94;94.33;101667.97;5075904;28;20029;-70
2021/12/31 08:08:09;;;;;;;6.30;3.25;;;;;;;10.98;94.47;101679.97;5078357;28;20031;-70
2021/12/31 08:10:35;;;;;;;6.55;3.33;;;;;;;11.00;94.18;101675.25;5085548;28;20379;-71
2021/12/31 08:13:01;;;;;;;9.45;3.05;;;;;;;11.02;94.00;101667.91;5072225;28;20082;-71
2021/12/31 08:15:28;;;;;;;6.50;3.00;;;;;;;11.04;93.91;101684.59;5090776;28;20031;-71
2021/12/31 08:17:54;;;;;;;5.72;3.35;;;;;;;11.03;93.90;101680.25;5091044;28;20036;-72
2021/12/31 08:20:20;;;;;;;5.10;2.10;;;;;;;11.04;93.52;101665.06;5078095;28;20442;-71
2021/12/31 08:22:45;;;;;;;4.72;2.67;;;;;;;10.99;93.70;101657.59;5076389;28;20028;-72
2021/12/31 08:25:11;;;;;;;4.90;2.72;;;;;;;11.04;93.48;101678.41;5090799;28;20048;-72
2021/12/31 08:27:36;;;;;;;8.38;2.40;;;;;;;11.04;93.43;101662.41;5091296;28;20402;-71
2021/12/31 08:30:03;;;;;;;4.00;2.38;;;;;;;11.06;93.38;101671.06;5091326;28;20039;-71
2021/12/31 08:32:29;;;;;;;3.22;2.60;;;;;;;11.08;93.27;101667.22;5091140;28;20055;-71
2021/12/31 08:34:54;;;;;;;6.55;2.10;;;;;;;11.10;93.10;101673.19;5089730;28;20467;-71
2021/12/31 08:37:19;;;;;;;5.35;2.25;;;;;;;11.11;92.91;101661.50;5085298;28;20041;-73
2021/12/31 08:39:45;;;;;;;6.38;2.60;;;;;;;11.14;92.72;101668.31;5071195;28;20498;-73
2021/12/31 08:42:10;;;;;;;5.18;2.22;;;;;;;11.18;92.41;101675.78;5070404;28;20142;-72
2021/12/31 08:44:35;;;;;;;7.50;3.28;;;;;;;11.21;92.64;101666.56;5071436;28;20047;-73
2021/12/31 08:47:01;;;;;;;6.63;3.17;;;;;;;11.25;92.15;101657.19;5071594;28;20035;-73
2021/12/31 08:49:26;;;;;;;4.53;2.95;;;;;;;11.26;91.98;101672.19;5071529;28;20060;-73
2021/12/31 08:51:52;;;;;;;7.10;3.08;;;;;;;11.32;91.46;101658.16;5069781;28;20040;-73
2021/12/31 08:54:18;;;;;;;8.43;2.58;;;;;;;11.39;91.32;101661.72;5071242;28;20024;-73
2021/12/31 08:56:43;;;;;;;6.93;2.40;;;;;;;11.44;90.86;101658.50;5090716;28;20040;-73
2021/12/31 08:59:09;;;;;;;5.97;1.88;;;;;;;11.51;90.95;101669.31;5090625;28;20089;-74
2021/12/31 09:01:35;;;;;;;2.47;1.92;;;;;;;11.54;90.50;101652.91;5090607;28;20484;-73
2021/12/31 09:04:01;;;;;;;5.13;2.60;;;;;;;11.57;90.35;101648.03;5079137;28;20039;-73
2021/12/31 09:06:26;;;;;;;3.67;1.85;;;;;;;11.60;89.93;101650.31;5069874;28;20029;-74
2021/12/31 09:08:51;;;;;;;2.88;1.88;;;;;;;11.65;89.74;101649.78;5076925;28;20028;-73
2021/12/31 09:11:17;;;;;;;7.40;2.67;;;;;;;11.67;90.01;101652.28;5090403;28;20027;-72
2021/12/31 09:13:43;;;;;;;4.82;2.28;;;;;;;11.71;89.28;101648.22;5090317;28;20036;-72
2021/12/31 09:16:09;;;;;;;3.75;1.77;;;;;;;11.74;89.18;101656.72;5074432;28;20032;-72
2021/12/31 09:18:35;;;;;;;4.35;1.80;;;;;;;11.77;88.73;101659.00;5084598;28;20412;-71
2021/12/31 09:21:01;;;;;;;4.63;2.60;;;;;;;11.81;88.48;101662.94;5075796;28;20032;-71
2021/12/31 09:23:26;;;;;;;2.83;1.90;;;;;;;11.80;88.50;101672.00;5082840;28;20035;-72
2021/12/31 09:25:51;;;;;;;8.75;3.75;;;;;;;11.77;88.79;101655.50;5089974;28;20051;-72
2021/12/31 09:28:17;;;;;;;5.55;3.45;;;;;;;11.82;89.16;101664.63;5070645;28;20067;-72
2021/12/31 09:30:43;;;;;;;3.65;2.35;;;;;;;11.84;88.77;101659.94;5089948;28;20024;-72
2021/12/31 09:33:09;;;;;;;2.47;1.80;;;;;;;11.88;88.45;101649.72;5071308;28;20025;-72
2021/12/31 09:35:34;;;;;;;4.15;2.05;;;;;;;11.92;88.41;101660.84;5069292;28;20039;-72
2021/12/31 09:38:00;;;;;;;4.13;2.40;;;;;;;11.95;88.11;101657.84;5070544;28;20472;-72
2021/12/31 09:40:26;;;;;;;4.68;1.80;;;;;;;11.94;88.14;101656.16;5070429;28;20028;-72
2021/12/31 09:43:08;;;;;;;6.32;1.75;;;;;;;12.01;87.73;101660.59;5077486;28;20036;-72
2021/12/31 09:45:39;;;;;;;2.33;1.53;;;;;;;11.97;87.71;101685.19;5072357;28;20028;-72
2021/12/31 09:48:13;;;;;;;7.47;2.70;;;;;;;11.95;87.80;101682.72;5088990;28;20105;-73
2021/12/31 09:50:41;;;;;;;4.35;2.55;;;;;;;11.92;87.70;101691.13;5089717;28;20030;-71
2021/12/31 09:53:09;;;;;;;4.05;1.90;;;;;;;11.92;87.23;101687.59;5089523;28;20024;-71
2021/12/31 09:55:38;;;;;;;3.42;1.98;;;;;;;11.92;87.67;101699.13;5083899;28;20031;-72
2021/12/31 09:58:03;;;;;;;2.60;2.00;;;;;;;11.98;87.54;101710.94;5089554;28;20035;-71
2021/12/31 10:00:29;;;;;;;4.10;2.35;;;;;;;12.05;87.70;101719.84;5089732;28;20024;-72
2021/12/31 10:03:10;;;;;;;3.05;1.67;;;;;;;12.13;87.64;101714.44;5081718;28;20081;-72
2021/12/31 10:05:59;;;;;;;4.95;1.75;;;;;;;12.18;87.80;101711.19;5089498;28;20034;-71
2021/12/31 10:08:30;;;;;;;6.40;1.80;;;;;;;12.18;87.32;101706.69;5062256;28;20044;-71
2021/12/31 10:11:07;;;;;;;4.22;2.50;;;;;;;12.21;87.43;101700.13;5089257;28;20027;-71
2021/12/31 10:13:35;;;;;;;4.30;1.83;;;;;;;12.17;87.08;101686.28;5081498;28;20028;-71
2021/12/31 10:16:01;;;;;;;4.43;2.10;;;;;;;12.15;86.70;101690.16;5080191;28;20549;-71
2021/12/31 10:18:31;;;;;;;3.20;2.13;;;;;;;12.10;87.25;101712.09;5070046;28;20055;-71
2021/12/31 10:20:57;;;;;;;2.83;1.92;;;;;;;12.10;86.95;101701.41;5084566;28;20023;-71
2021/12/31 10:23:24;;;;;;;4.43;1.67;;;;;;;12.04;87.10;101694.97;5089189;28;20059;-71
2021/12/31 10:25:49;;;;;;;6.03;2.72;;;;;;;12.02;87.28;101678.28;5070148;28;20496;-71
2021/12/31 10:28:17;;;;;;;2.85;1.98;;;;;;;11.99;87.28;101670.63;5070379;28;20043;-71
2021/12/31 10:30:43;;;;;;;4.43;3.15;;;;;;;11.95;87.49;101668.53;5089305;28;20359;-71
2021/12/31 10:33:10;;;;;;;3.60;2.15;;;;;;;11.97;87.50;101661.13;5086775;28;20056;-71
2021/12/31 10:35:38;;;;;;;5.70;2.17;;;;;;;11.99;87.73;101692.00;5089132;28;20081;-71
2021/12/31 10:38:06;;;;;;;4.53;2.05;;;;;;;12.04;87.59;101676.25;5074537;28;20036;-71
2021/12/31 10:40:31;;;;;;;5.47;2.33;;;;;;;12.08;87.50;101676.72;5069672;28;20037;-71
2021/12/31 10:43:18;;;;;;;5.80;3.03;;;;;;;12.14;87.98;101692.00;5070460;28;20498;-71
2021/12/31 10:46:02;;;;;;;5.45;1.92;;;;;;;12.16;87.68;101678.47;5088939;28;20017;-71
2021/12/31 10:48:40;;;;;;;5.65;2.05;;;;;;;12.23;86.99;101664.13;5088899;28;20020;-71
2021/12/31 10:51:07;;;;;;;6.30;2.25;;;;;;;12.23;86.99;101672.16;5086057;28;20024;-71
2021/12/31 10:53:33;;;;;;;6.05;2.38;;;;;;;12.24;87.14;101686.38;5088879;28;20036;-71
2021/12/31 10:56:09;;;;;;;4.40;2.30;;;;;;;12.22;86.72;101688.41;5075666;28;20039;-71
2021/12/31 10:58:36;;;;;;;5.88;2.50;;;;;;;12.23;86.99;101690.88;5069735;28;20056;-71
2021/12/31 11:01:04;;;;;;;5.43;2.58;;;;;;;12.21;86.79;101684.91;5078086;28;20085;-71
2021/12/31 11:03:30;;;;;;;9.20;2.95;;;;;;;12.25;87.14;101691.53;5088229;28;20020;-71
2021/12/31 11:05:59;;;;;;;7.72;2.70;;;;;;;12.27;86.78;101696.69;5069684;28;20040;-72
2021/12/31 11:08:26;;;;;;;4.55;2.08;;;;;;;12.32;87.22;101693.47;5083785;28;20089;-71
2021/12/31 11:10:53;;;;;;;5.60;3.38;;;;;;;12.35;87.25;101669.03;5083148;28;20032;-72
2021/12/31 11:13:19;;;;;;;4.57;1.98;;;;;;;12.43;87.26;101661.69;5073163;28;20379;-71
2021/12/31 11:15:47;;;;;;;5.68;1.90;;;;;;;12.50;86.78;101669.81;5092011;28;20127;-71
2021/12/31 11:18:13;;;;;;;5.05;2.78;;;;;;;12.53;86.18;101652.56;5092250;28;20118;-71
2021/12/31 11:20:40;;;;;;;2.45;1.70;;;;;;;12.57;85.83;101648.47;5092641;28;20081;-72
2021/12/31 11:23:06;;;;;;;4.15;2.10;;;;;;;12.51;85.95;101652.72;5083689;28;20032;-71
2021/12/31 11:25:31;;;;;;;4.22;2.00;;;;;;;12.54;86.42;101657.69;5074133;28;20083;-71